aviador You're here:

VHHH Decoded Metar

HONG KONG in HONG KONG
Report Time2017-08-24 08:30:00
UTC Time2017-08-24 08:52:26
Flight Rules vfr VFR
Wind110° at 14 kt
W.Decomp.*RWY 07: 10.4 kt HW 9.4 kt RCW
W.Rank110° ranks 2
Current wind is above 110° avg. (11.4)
Visibility9999 m
Phenomena:N/A
Clouds:Few 016 Hf
Scattered 025 Hf
Expected CloudBase > 2,800 ft AGL from Temp-Dew spread
CeilingNone
Temp32°C (ISA +17)
Dew Point25°C (67% RH)
Heat Index39.3°C
QNH1007 hPa
Density Alt2,595 ft
Elevation30 ft
Report Wrong Elevation
Raw Report
METAR VHHH 240830Z 11014KT 090V160 9999 FEW016 SCT025 32/25 Q1007 NOSIG=

Extra information for VHHH:More info

Metar Taf Metar & Taf Last 4 Metars F.Rules Stats Wind Profile Meteogram Temp Stats Airport Information Weather charts Add Link Nearby VenuesMetar ALERT Operation Metar Decoded Social comments